Time;durP1;ratioP1;P1;durP2;ratioP2;P2;SDS_P1;SDS_P2;PMS_P1;PMS_P2;Temp;Humidity;BMP_temperature;BMP_pressure;BME280_temperature;BME280_humidity;BME280_pressure;Samples;Min_cycle;Max_cycle;Signal;HPM_P1;HPM_P2
2024/04/22 00:00:39;;;;;;;3.97;3.63;;;5.30;99.90;;;;;;5335495;26;20571;-68
2024/04/22 00:03:08;;;;;;;4.43;4.03;;;5.30;99.90;;;;;;5348852;26;21929;-68
2024/04/22 00:05:36;;;;;;;4.40;4.00;;;5.40;99.90;;;;;;5343901;26;20586;-68
2024/04/22 00:08:06;;;;;;;4.53;4.13;;;5.40;99.90;;;;;;5331041;26;22676;-68
2024/04/22 00:10:33;;;;;;;4.50;3.60;;;5.40;99.90;;;;;;5341666;26;20861;-68
2024/04/22 00:13:06;;;;;;;3.70;3.40;;;5.40;99.90;;;;;;5337403;26;20532;-69
2024/04/22 00:15:33;;;;;;;4.87;4.37;;;5.30;99.90;;;;;;5337358;26;20542;-68
2024/04/22 00:18:03;;;;;;;4.07;3.67;;;5.30;99.90;;;;;;5338736;26;20600;-68
2024/04/22 00:20:30;;;;;;;4.97;3.43;;;5.30;99.90;;;;;;5352354;26;21203;-68
2024/04/22 00:23:00;;;;;;;4.90;4.13;;;5.30;99.90;;;;;;5335201;26;20586;-68
2024/04/22 00:25:27;;;;;;;4.87;4.37;;;5.30;99.90;;;;;;5330308;26;20505;-68
2024/04/22 00:27:57;;;;;;;5.53;3.90;;;5.30;99.90;;;;;;5332753;26;21111;-68
2024/04/22 00:30:27;;;;;;;4.20;3.80;;;5.30;99.90;;;;;;5334260;26;20487;-69
2024/04/22 00:32:57;;;;;;;4.30;3.73;;;5.30;99.90;;;;;;5346296;26;21170;-68
2024/04/22 00:35:24;;;;;;;4.20;3.80;;;5.30;99.90;;;;;;5336202;26;20537;-69
2024/04/22 00:37:54;;;;;;;4.30;3.90;;;5.30;99.90;;;;;;5336548;26;20476;-68
2024/04/22 00:40:21;;;;;;;4.23;3.80;;;5.30;99.90;;;;;;5346265;26;20480;-68
2024/04/22 00:42:51;;;;;;;4.40;4.00;;;5.30;99.90;;;;;;5352637;26;20594;-69
2024/04/22 00:45:18;;;;;;;3.90;3.50;;;5.30;99.90;;;;;;5337870;26;20543;-68
2024/04/22 00:47:51;;;;;;;4.57;3.70;;;5.20;99.90;;;;;;5337726;26;20484;-68
2024/04/22 00:50:18;;;;;;;5.13;3.80;;;5.20;99.90;;;;;;5342321;26;21077;-68
2024/04/22 00:52:48;;;;;;;3.93;3.53;;;5.20;99.90;;;;;;5338441;26;20494;-68
2024/04/22 00:55:16;;;;;;;3.90;3.57;;;5.20;99.90;;;;;;5337664;26;20505;-68
2024/04/22 00:57:46;;;;;;;3.50;3.20;;;5.20;99.90;;;;;;5329475;26;20478;-68
2024/04/22 01:00:13;;;;;;;4.57;3.27;;;5.20;99.90;;;;;;5335523;26;20532;-68
2024/04/22 01:02:44;;;;;;;3.90;3.37;;;5.10;99.90;;;;;;5329005;26;20521;-68
2024/04/22 01:05:14;;;;;;;4.57;3.13;;;5.10;99.90;;;;;;5341094;26;21087;-68
2024/04/22 01:07:44;;;;;;;4.17;3.67;;;5.10;99.90;;;;;;5341226;26;20493;-68
2024/04/22 01:10:11;;;;;;;3.43;3.13;;;5.10;99.90;;;;;;5332509;26;20824;-68
2024/04/22 01:12:42;;;;;;;3.60;3.13;;;5.10;99.90;;;;;;5337581;26;20534;-68
2024/04/22 01:15:09;;;;;;;3.70;3.30;;;5.10;99.90;;;;;;5348261;26;20493;-68
2024/04/22 01:17:40;;;;;;;3.23;2.93;;;5.10;99.90;;;;;;5338428;26;20611;-67
2024/04/22 01:20:08;;;;;;;5.33;3.53;;;5.10;99.90;;;;;;5344959;26;20474;-68
2024/04/22 01:22:41;;;;;;;7.37;3.50;;;5.10;99.90;;;;;;5351578;26;21013;-68
2024/04/22 01:25:09;;;;;;;3.77;3.00;;;5.10;99.90;;;;;;5346807;26;20492;-69
2024/04/22 01:27:39;;;;;;;4.57;3.17;;;5.10;99.90;;;;;;5338349;26;20538;-67
2024/04/22 01:30:07;;;;;;;3.80;3.30;;;5.10;99.90;;;;;;5327424;26;20488;-68
2024/04/22 01:32:37;;;;;;;3.40;3.10;;;5.10;99.90;;;;;;5332436;26;22318;-68
2024/04/22 01:35:05;;;;;;;4.93;3.20;;;5.10;99.90;;;;;;5336724;26;20575;-68
2024/04/22 01:37:35;;;;;;;4.43;4.03;;;5.20;99.90;;;;;;5344458;26;20589;-68
2024/04/22 01:40:06;;;;;;;3.50;3.20;;;5.10;99.90;;;;;;5350687;26;20934;-68
2024/04/22 01:42:36;;;;;;;3.30;2.83;;;5.10;99.90;;;;;;5340066;26;20473;-68
2024/04/22 01:45:10;;;;;;;3.63;3.33;;;5.10;99.90;;;;;;5331753;26;20485;-68
2024/04/22 01:47:40;;;;;;;3.27;2.97;;;5.10;99.90;;;;;;5339170;26;20728;-67
2024/04/22 01:50:08;;;;;;;3.90;3.10;;;5.10;99.90;;;;;;5338687;26;21007;-68
2024/04/22 01:52:38;;;;;;;3.93;3.30;;;5.10;99.90;;;;;;5335180;26;20473;-68
2024/04/22 01:55:08;;;;;;;3.23;2.90;;;5.10;99.90;;;;;;5337632;26;20489;-68
2024/04/22 01:57:40;;;;;;;3.20;2.93;;;5.00;99.90;;;;;;5337629;26;20489;-68
2024/04/22 02:00:08;;;;;;;3.97;3.30;;;5.00;99.90;;;;;;5334907;26;20972;-68
2024/04/22 02:02:38;;;;;;;2.97;2.37;;;5.00;99.90;;;;;;5326232;26;20518;-68
2024/04/22 02:05:05;;;;;;;5.70;3.47;;;5.00;99.90;;;;;;5345881;26;20907;-68
2024/04/22 02:07:35;;;;;;;3.40;3.07;;;5.00;99.90;;;;;;5337370;26;21035;-68
2024/04/22 02:10:03;;;;;;;2.80;2.60;;;4.90;99.90;;;;;;5349883;26;20476;-68
2024/04/22 02:12:52;;;;;;;3.40;3.10;;;4.90;99.90;;;;;;5347405;26;20629;-66
2024/04/22 02:15:20;;;;;;;3.53;3.23;;;5.00;99.90;;;;;;5344822;26;20491;-66
2024/04/22 02:17:49;;;;;;;3.03;2.67;;;4.90;99.90;;;;;;5341814;26;20484;-69
2024/04/22 02:20:17;;;;;;;4.03;2.90;;;5.00;99.90;;;;;;5340192;26;20540;-67
2024/04/22 02:22:46;;;;;;;3.00;2.70;;;4.90;99.90;;;;;;5339345;26;20926;-67
2024/04/22 02:25:14;;;;;;;3.10;2.80;;;5.00;99.90;;;;;;5340566;26;20487;-67
2024/04/22 02:27:45;;;;;;;2.57;2.37;;;4.90;99.90;;;;;;5337445;26;20566;-65
2024/04/22 02:30:15;;;;;;;4.10;3.30;;;5.00;99.90;;;;;;5334452;26;20481;-68
2024/04/22 02:32:44;;;;;;;3.43;3.10;;;5.00;99.90;;;;;;5336758;26;20478;-68
2024/04/22 02:35:12;;;;;;;7.43;3.87;;;5.00;99.90;;;;;;5341387;26;21835;-68
2024/04/22 02:37:41;;;;;;;4.67;4.20;;;5.00;99.90;;;;;;5329408;26;22441;-68
2024/04/22 02:40:09;;;;;;;4.90;4.50;;;5.00;99.90;;;;;;5340148;26;20481;-67
2024/04/22 02:42:39;;;;;;;6.60;5.50;;;5.00;99.90;;;;;;5340551;26;20484;-67
2024/04/22 02:45:06;;;;;;;6.30;5.70;;;5.00;99.90;;;;;;5348534;26;20489;-67
2024/04/22 02:47:39;;;;;;;8.53;7.20;;;5.00;99.90;;;;;;5342964;26;20476;-67
2024/04/22 02:50:06;;;;;;;7.40;6.67;;;5.00;99.90;;;;;;5334044;26;22185;-67
2024/04/22 02:52:36;;;;;;;8.97;8.07;;;5.00;99.90;;;;;;5340958;26;20592;-67
2024/04/22 02:55:04;;;;;;;9.17;8.23;;;5.00;99.90;;;;;;5343882;26;24867;-67
2024/04/22 02:57:33;;;;;;;9.73;7.97;;;5.00;99.90;;;;;;5341122;26;20481;-67
2024/04/22 03:00:01;;;;;;;10.17;8.80;;;5.00;99.90;;;;;;5335738;26;20487;-68
2024/04/22 03:02:30;;;;;;;8.60;7.70;;;5.00;99.90;;;;;;5335156;26;20484;-67
2024/04/22 03:05:00;;;;;;;9.30;8.30;;;5.00;99.90;;;;;;5340033;26;20532;-67
2024/04/22 03:07:30;;;;;;;13.87;7.93;;;4.90;99.90;;;;;;5345994;26;20529;-67
2024/04/22 03:09:57;;;;;;;8.43;6.97;;;4.90;99.90;;;;;;5330690;26;20489;-67
2024/04/22 03:12:27;;;;;;;9.27;6.70;;;4.90;99.90;;;;;;5334662;26;20496;-67
2024/04/22 03:14:54;;;;;;;8.17;6.10;;;4.90;99.90;;;;;;5336650;26;20565;-67
2024/04/22 03:17:24;;;;;;;8.47;6.30;;;4.90;99.90;;;;;;5338017;26;20589;-67
2024/04/22 03:19:52;;;;;;;7.27;6.00;;;4.90;99.90;;;;;;5343427;26;20482;-67
2024/04/22 03:22:24;;;;;;;7.03;5.57;;;4.80;99.90;;;;;;5347381;26;20789;-67
2024/04/22 03:24:52;;;;;;;7.30;6.10;;;4.80;99.90;;;;;;5350077;26;21070;-67
2024/04/22 03:27:21;;;;;;;7.40;6.40;;;4.80;99.90;;;;;;5340767;26;20480;-67
2024/04/22 03:29:48;;;;;;;8.40;6.10;;;4.80;99.90;;;;;;5337549;26;20553;-67
2024/04/22 03:32:18;;;;;;;7.03;5.20;;;4.80;99.90;;;;;;5339198;26;20561;-67
2024/04/22 03:34:45;;;;;;;6.53;5.83;;;4.70;99.90;;;;;;5345483;26;20481;-67
2024/04/22 03:37:15;;;;;;;5.90;5.20;;;4.70;99.90;;;;;;5344129;26;20491;-67
2024/04/22 03:39:47;;;;;;;7.37;5.70;;;4.70;99.90;;;;;;5348252;26;20491;-68
2024/04/22 03:42:17;;;;;;;6.80;4.87;;;4.70;99.90;;;;;;5343335;26;20478;-67
2024/04/22 03:44:47;;;;;;;6.03;5.13;;;4.70;99.90;;;;;;5331199;26;20999;-67
2024/04/22 03:50:02;;;;;;;6.67;4.97;;;4.60;99.90;;;;;;5332732;26;20472;-67
2024/04/22 03:52:32;;;;;;;6.30;5.17;;;4.60;99.90;;;;;;5342253;26;20473;-67
2024/04/22 03:55:05;;;;;;;8.83;5.23;;;4.60;99.90;;;;;;5343420;26;20501;-67
2024/04/22 03:57:35;;;;;;;6.23;4.80;;;4.60;99.90;;;;;;5341471;26;21065;-71
2024/04/22 04:00:05;;;;;;;5.03;4.43;;;4.60;99.90;;;;;;5342110;26;20481;-67
2024/04/22 04:02:32;;;;;;;6.47;5.00;;;4.60;99.90;;;;;;5335297;26;20547;-67
2024/04/22 04:05:02;;;;;;;7.60;5.67;;;4.50;99.90;;;;;;5336661;26;21112;-67
2024/04/22 04:07:32;;;;;;;8.00;6.00;;;4.50;99.90;;;;;;5342762;26;20576;-68
2024/04/22 04:10:02;;;;;;;5.50;4.67;;;4.50;99.90;;;;;;5334146;26;20615;-68
2024/04/22 04:12:32;;;;;;;6.40;4.80;;;4.50;99.90;;;;;;5334899;26;20567;-67
2024/04/22 04:14:59;;;;;;;6.87;5.33;;;4.50;99.90;;;;;;5346150;26;20560;-67
2024/04/22 04:17:29;;;;;;;7.33;6.40;;;4.50;99.90;;;;;;5343622;26;20483;-68
2024/04/22 04:19:56;;;;;;;7.40;6.10;;;4.60;99.90;;;;;;5334519;26;21131;-68
2024/04/22 04:22:26;;;;;;;7.03;5.37;;;4.60;99.90;;;;;;5338253;26;20492;-67
2024/04/22 04:24:53;;;;;;;6.77;5.50;;;4.60;99.90;;;;;;5334038;26;20530;-68
2024/04/22 04:27:26;;;;;;;5.20;4.70;;;4.60;99.90;;;;;;5333933;26;20483;-67
2024/04/22 04:29:53;;;;;;;5.63;4.57;;;4.60;99.90;;;;;;5341701;26;20525;-68
2024/04/22 04:32:23;;;;;;;6.33;4.40;;;4.60;99.90;;;;;;5338637;26;20479;-67
2024/04/22 04:34:51;;;;;;;7.83;5.10;;;4.60;99.90;;;;;;5339344;26;20484;-67
2024/04/22 04:37:21;;;;;;;7.10;4.13;;;4.60;99.90;;;;;;5341709;26;20497;-67
2024/04/22 04:39:48;;;;;;;7.20;4.43;;;4.70;99.90;;;;;;5331379;26;21967;-68
2024/04/22 04:42:18;;;;;;;4.83;4.30;;;4.70;99.90;;;;;;5333778;26;20940;-67
2024/04/22 04:44:47;;;;;;;5.27;4.10;;;4.70;99.90;;;;;;5334385;26;21072;-67
2024/04/22 04:47:17;;;;;;;5.17;4.30;;;4.70;99.90;;;;;;5333964;26;20640;-68
2024/04/22 04:49:45;;;;;;;4.33;3.40;;;4.70;99.90;;;;;;5340971;26;20483;-67
2024/04/22 04:52:15;;;;;;;4.30;3.80;;;4.80;99.90;;;;;;5338072;26;20533;-68
2024/04/22 04:54:42;;;;;;;4.67;3.80;;;4.70;99.90;;;;;;5328876;26;21024;-68
2024/04/22 04:57:12;;;;;;;5.77;3.90;;;4.80;99.90;;;;;;5340639;26;20548;-68
2024/04/22 04:59:39;;;;;;;5.27;3.73;;;4.80;99.90;;;;;;5340092;26;20490;-68
2024/04/22 05:02:11;;;;;;;4.20;3.70;;;4.80;99.90;;;;;;5324748;26;20484;-67
2024/04/22 05:04:38;;;;;;;4.63;3.67;;;4.80;99.90;;;;;;5338793;26;20636;-68
2024/04/22 05:07:08;;;;;;;6.60;4.40;;;4.80;99.90;;;;;;5337009;26;21035;-68
2024/04/22 05:09:38;;;;;;;4.00;3.60;;;4.80;99.90;;;;;;5344186;26;20906;-67
2024/04/22 05:12:09;;;;;;;4.27;2.73;;;4.70;99.90;;;;;;5345266;26;20488;-67
2024/04/22 05:14:36;;;;;;;5.63;3.00;;;4.70;99.90;;;;;;5310687;26;20482;-67
2024/04/22 05:17:06;;;;;;;2.90;2.60;;;4.70;99.90;;;;;;5336515;26;20568;-67
2024/04/22 05:19:36;;;;;;;3.80;3.07;;;4.70;99.90;;;;;;5340275;26;20479;-67
2024/04/22 05:22:06;;;;;;;2.70;2.50;;;4.70;99.90;;;;;;5344013;26;20595;-67
2024/04/22 05:24:33;;;;;;;5.33;2.87;;;4.70;99.90;;;;;;5332362;26;20548;-67
2024/04/22 05:27:02;;;;;;;2.77;2.47;;;4.80;99.90;;;;;;5337300;26;20501;-67
2024/04/22 05:29:31;;;;;;;2.40;2.20;;;4.80;99.90;;;;;;5334736;26;20633;-67
2024/04/22 05:32:00;;;;;;;2.90;2.13;;;4.80;99.90;;;;;;5338465;26;20552;-67
2024/04/22 05:37:20;;;;;;;2.80;2.50;;;4.80;99.90;;;;;;5345631;26;20563;-67
2024/04/22 05:39:49;;;;;;;2.43;2.23;;;4.90;99.90;;;;;;5343126;26;21091;-68
2024/04/22 05:42:19;;;;;;;2.50;2.30;;;4.90;99.90;;;;;;5340887;26;20486;-67
2024/04/22 05:44:49;;;;;;;2.27;2.07;;;4.90;99.90;;;;;;5341771;26;20530;-68
2024/04/22 05:47:16;;;;;;;2.33;2.13;;;4.90;99.90;;;;;;5338283;26;21074;-67
2024/04/22 05:49:46;;;;;;;3.97;2.20;;;4.90;99.90;;;;;;5337338;26;20497;-67
2024/04/22 05:52:20;;;;;;;2.67;2.10;;;4.80;99.90;;;;;;5336678;26;20484;-67
2024/04/22 05:54:50;;;;;;;2.80;1.90;;;4.80;99.90;;;;;;5337127;26;21049;-68
2024/04/22 05:57:18;;;;;;;3.93;1.90;;;4.80;99.90;;;;;;5336344;26;20549;-67
2024/04/22 05:59:48;;;;;;;2.40;2.20;;;4.80;99.90;;;;;;5340701;26;20485;-67
2024/04/22 06:02:18;;;;;;;4.20;2.50;;;4.80;99.90;;;;;;5346945;26;20548;-68
2024/04/22 06:04:45;;;;;;;3.60;2.27;;;4.80;99.90;;;;;;5331910;26;20887;-67
2024/04/22 06:07:15;;;;;;;3.70;2.37;;;4.80;99.90;;;;;;5339560;26;21286;-67
2024/04/22 06:09:45;;;;;;;3.80;2.23;;;4.80;99.90;;;;;;5330546;26;21082;-67
2024/04/22 06:12:14;;;;;;;2.40;1.97;;;4.90;99.90;;;;;;5335838;26;20918;-67
2024/04/22 06:14:46;;;;;;;2.80;2.50;;;4.90;99.90;;;;;;5348680;26;21180;-68
2024/04/22 06:17:15;;;;;;;2.47;2.20;;;5.00;99.90;;;;;;5341501;26;20897;-67
2024/04/22 06:19:43;;;;;;;5.07;2.57;;;5.00;99.90;;;;;;5342601;26;20533;-67
2024/04/22 06:22:13;;;;;;;2.67;2.00;;;5.00;99.90;;;;;;5341945;26;20847;-67
2024/04/22 06:24:40;;;;;;;2.10;2.00;;;5.00;99.90;;;;;;5343989;26;20485;-67
2024/04/22 06:27:13;;;;;;;3.30;2.50;;;5.10;99.90;;;;;;5339582;26;20493;-68
2024/04/22 06:29:40;;;;;;;2.40;2.20;;;5.10;99.90;;;;;;5341040;26;20824;-67
2024/04/22 06:32:10;;;;;;;2.93;2.20;;;5.10;99.90;;;;;;5329315;26;20489;-68
2024/04/22 06:34:37;;;;;;;2.17;1.97;;;5.20;99.90;;;;;;5346635;26;20477;-67
2024/04/22 06:37:07;;;;;;;3.77;2.20;;;5.20;99.90;;;;;;5343734;26;21312;-68
2024/04/22 06:39:34;;;;;;;2.03;1.90;;;5.30;99.90;;;;;;5343296;26;20543;-68
2024/04/22 06:42:04;;;;;;;2.50;2.30;;;5.30;99.90;;;;;;5356063;26;20487;-68
2024/04/22 06:44:34;;;;;;;2.83;2.10;;;5.30;99.90;;;;;;5349207;26;21227;-68
2024/04/22 06:47:03;;;;;;;3.23;2.00;;;5.30;99.90;;;;;;5347307;26;20507;-68
2024/04/22 06:49:32;;;;;;;1.80;1.70;;;5.40;99.90;;;;;;5340874;26;20937;-67
2024/04/22 06:52:02;;;;;;;4.10;2.17;;;5.50;99.90;;;;;;5347846;26;20543;-67
2024/04/22 06:54:29;;;;;;;2.23;1.83;;;5.40;99.90;;;;;;5351900;26;20476;-68
2024/04/22 06:56:59;;;;;;;2.50;1.83;;;5.40;99.90;;;;;;5348069;26;21779;-67
2024/04/22 06:59:26;;;;;;;2.43;2.10;;;5.40;99.90;;;;;;5351752;26;20489;-68
2024/04/22 07:01:58;;;;;;;1.87;1.67;;;5.40;99.90;;;;;;5344444;26;20532;-68
2024/04/22 07:04:31;;;;;;;2.10;1.90;;;5.40;99.90;;;;;;5350694;26;20495;-68
2024/04/22 07:06:59;;;;;;;2.30;2.00;;;5.40;99.90;;;;;;5342561;26;20549;-67
2024/04/22 07:09:28;;;;;;;2.47;1.60;;;5.50;99.90;;;;;;5342218;26;20485;-68
2024/04/22 07:11:55;;;;;;;2.63;1.60;;;5.50;99.90;;;;;;5337525;26;20503;-67
2024/04/22 07:14:25;;;;;;;1.90;1.80;;;5.60;99.90;;;;;;5345346;26;20869;-67
2024/04/22 07:16:56;;;;;;;2.43;1.80;;;5.60;99.90;;;;;;5346230;26;21077;-67
2024/04/22 07:19:26;;;;;;;3.50;1.63;;;5.60;99.90;;;;;;5351422;26;20528;-68
2024/04/22 07:21:55;;;;;;;2.30;1.60;;;5.70;98.30;;;;;;5337167;26;20546;-68
2024/04/22 07:24:25;;;;;;;1.80;1.70;;;5.70;98.50;;;;;;5340605;26;20509;-67
2024/04/22 07:26:54;;;;;;;1.90;1.80;;;5.70;98.50;;;;;;5339808;26;21363;-67
2024/04/22 07:29:25;;;;;;;2.10;1.80;;;5.70;99.90;;;;;;5351499;26;20485;-67
2024/04/22 07:31:55;;;;;;;2.50;1.83;;;5.80;99.90;;;;;;5338096;26;20489;-68
2024/04/22 07:34:25;;;;;;;2.97;1.90;;;5.90;99.90;;;;;;5343456;26;20542;-68
2024/04/22 07:37:01;;;;;;;2.43;1.60;;;5.90;99.90;;;;;;5345171;26;21116;-68
2024/04/22 07:39:33;;;;;;;1.70;1.30;;;5.90;99.90;;;;;;5356114;26;20544;-68
2024/04/22 07:42:00;;;;;;;1.83;1.50;;;6.00;96.10;;;;;;5343341;26;20619;-68
2024/04/22 07:44:30;;;;;;;3.10;1.97;;;6.00;97.40;;;;;;5341996;26;20490;-68
2024/04/22 07:47:00;;;;;;;1.87;1.37;;;6.00;99.90;;;;;;5338248;26;21449;-68
2024/04/22 07:49:30;;;;;;;1.47;1.37;;;6.00;97.40;;;;;;5343193;26;20930;-68
2024/04/22 07:51:57;;;;;;;1.73;1.63;;;6.00;98.30;;;;;;5341600;26;20493;-67
2024/04/22 07:54:28;;;;;;;1.60;1.50;;;6.00;97.70;;;;;;5347956;26;20485;-68
2024/04/22 07:56:55;;;;;;;3.00;1.80;;;6.00;95.70;;;;;;5339528;26;22382;-68
2024/04/22 07:59:26;;;;;;;1.77;1.67;;;6.00;99.10;;;;;;5339506;26;20481;-68
2024/04/22 08:01:53;;;;;;;2.10;2.00;;;6.10;99.90;;;;;;5338900;26;20546;-68
2024/04/22 08:04:26;;;;;;;3.13;1.60;;;6.10;99.90;;;;;;5342987;26;20945;-67
2024/04/22 08:07:03;;;;;;;2.77;1.80;;;6.20;99.90;;;;;;5336942;26;20497;-68
2024/04/22 08:09:33;;;;;;;1.50;1.40;;;6.20;99.00;;;;;;5349049;26;20487;-68
2024/04/22 08:12:01;;;;;;;2.10;1.73;;;6.30;97.20;;;;;;5345619;26;20488;-68
2024/04/22 08:14:32;;;;;;;2.47;1.70;;;6.30;97.20;;;;;;5337925;26;21041;-67
2024/04/22 08:17:00;;;;;;;1.37;1.27;;;6.40;98.60;;;;;;5338878;26;20526;-67
2024/04/22 08:19:32;;;;;;;1.90;1.50;;;6.40;99.90;;;;;;5347260;26;20480;-68
2024/04/22 08:21:59;;;;;;;2.90;1.63;;;6.50;96.90;;;;;;5346282;26;20591;-68
2024/04/22 08:24:29;;;;;;;1.73;1.63;;;6.60;97.50;;;;;;5345557;26;21340;-68
2024/04/22 08:26:56;;;;;;;1.60;1.50;;;6.60;93.10;;;;;;5344558;26;20494;-68
2024/04/22 08:29:26;;;;;;;1.43;1.30;;;6.60;98.10;;;;;;5330141;26;24126;-68
2024/04/22 08:31:53;;;;;;;3.33;1.93;;;6.60;98.90;;;;;;5341996;26;20488;-68
2024/04/22 08:34:23;;;;;;;1.80;1.70;;;6.50;95.60;;;;;;5342032;26;20586;-68
2024/04/22 08:36:53;;;;;;;3.53;1.70;;;6.50;96.20;;;;;;5348142;26;20488;-68
2024/04/22 08:39:23;;;;;;;2.33;2.00;;;6.50;98.40;;;;;;5350557;26;20538;-67
2024/04/22 08:41:50;;;;;;;2.00;1.53;;;6.60;97.50;;;;;;5343434;26;20545;-68
2024/04/22 08:44:20;;;;;;;1.60;1.50;;;6.60;99.90;;;;;;5343320;26;20497;-68
2024/04/22 08:46:47;;;;;;;1.70;1.60;;;6.70;97.90;;;;;;5336253;26;20486;-67
2024/04/22 08:49:17;;;;;;;2.10;1.80;;;6.70;97.00;;;;;;5347365;26;21090;-68
2024/04/22 08:51:46;;;;;;;2.03;1.83;;;6.80;99.90;;;;;;5342578;26;21325;-67
2024/04/22 08:54:19;;;;;;;1.90;1.63;;;6.80;99.90;;;;;;5347271;26;20532;-68
2024/04/22 08:56:52;;;;;;;3.50;1.83;;;6.90;95.70;;;;;;5339882;26;20726;-68
2024/04/22 08:59:21;;;;;;;1.83;1.60;;;7.00;94.20;;;;;;5352004;26;20485;-68
2024/04/22 09:02:07;;;;;;;2.90;1.73;;;7.00;94.80;;;;;;5340549;26;20852;-67
2024/04/22 09:04:34;;;;;;;1.70;1.60;;;7.00;92.20;;;;;;5339069;26;20484;-68
2024/04/22 09:07:07;;;;;;;2.17;2.03;;;7.00;92.90;;;;;;5337669;26;21676;-68
2024/04/22 09:09:37;;;;;;;1.70;1.60;;;7.00;95.30;;;;;;5336324;26;20476;-68
2024/04/22 09:12:27;;;;;;;3.60;1.97;;;7.00;96.40;;;;;;5337215;26;20487;-68
2024/04/22 09:14:58;;;;;;;3.23;1.77;;;7.10;92.20;;;;;;5343664;26;20887;-67
2024/04/22 09:17:28;;;;;;;1.70;1.60;;;7.10;98.20;;;;;;5338377;26;20488;-68
2024/04/22 09:19:56;;;;;;;1.90;1.70;;;7.20;93.60;;;;;;5341685;26;20549;-68
2024/04/22 09:22:26;;;;;;;3.73;2.27;;;7.30;91.30;;;;;;5343786;26;21104;-68
2024/04/22 09:24:56;;;;;;;2.37;1.87;;;7.30;94.10;;;;;;5336847;26;20605;-67
2024/04/22 09:27:27;;;;;;;2.67;1.97;;;7.40;92.10;;;;;;5334583;26;20489;-68
2024/04/22 09:29:59;;;;;;;2.03;1.80;;;7.40;91.00;;;;;;5341132;26;20588;-67
2024/04/22 09:32:31;;;;;;;2.10;1.90;;;7.50;95.10;;;;;;5336055;26;20536;-68
2024/04/22 09:35:07;;;;;;;2.67;2.07;;;7.50;94.30;;;;;;5334088;26;20611;-67
2024/04/22 09:37:43;;;;;;;2.70;2.00;;;7.60;95.90;;;;;;5342668;26;20541;-68
2024/04/22 09:40:17;;;;;;;2.57;1.93;;;7.70;95.00;;;;;;5354031;26;21027;-68
2024/04/22 09:42:48;;;;;;;2.10;1.90;;;7.70;99.50;;;;;;5349380;26;20473;-68
2024/04/22 09:45:15;;;;;;;2.13;1.93;;;7.70;93.20;;;;;;5346018;26;21282;-68
2024/04/22 09:47:46;;;;;;;2.13;1.60;;;7.70;94.40;;;;;;5338302;26;20914;-68
2024/04/22 09:50:15;;;;;;;2.43;1.73;;;7.70;85.80;;;;;;5343781;26;20489;-68
2024/04/22 09:52:46;;;;;;;1.93;1.80;;;7.70;85.30;;;;;;5336254;26;20498;-67
2024/04/22 09:55:16;;;;;;;3.00;1.87;;;7.80;91.70;;;;;;5339550;26;20480;-68
2024/04/22 09:57:48;;;;;;;4.57;1.70;;;7.80;92.20;;;;;;5342933;26;20856;-68
2024/04/22 10:00:17;;;;;;;1.97;1.87;;;7.90;89.80;;;;;;5344437;26;20594;-68
2024/04/22 10:02:47;;;;;;;2.40;2.20;;;8.00;91.00;;;;;;5348395;26;20477;-68
2024/04/22 10:05:15;;;;;;;1.60;1.50;;;8.00;93.00;;;;;;5339548;26;20525;-68
2024/04/22 10:07:45;;;;;;;2.70;1.83;;;7.90;89.10;;;;;;5343518;26;20897;-68
2024/04/22 10:10:13;;;;;;;1.93;1.83;;;7.90;90.40;;;;;;5346006;26;20491;-68
2024/04/22 10:12:45;;;;;;;1.93;1.53;;;7.90;90.40;;;;;;5345009;26;20523;-68
2024/04/22 10:15:15;;;;;;;5.37;2.20;;;8.00;90.30;;;;;;5350137;26;20555;-68
2024/04/22 10:17:46;;;;;;;2.40;2.20;;;8.00;85.60;;;;;;5339570;26;20476;-68
2024/04/22 10:20:17;;;;;;;2.87;2.40;;;8.20;91.70;;;;;;5342081;26;20497;-68
2024/04/22 10:22:45;;;;;;;3.50;2.80;;;8.10;90.30;;;;;;5352459;26;20941;-68
2024/04/22 10:25:20;;;;;;;2.30;2.10;;;8.30;91.60;;;;;;5341667;26;20557;-68
2024/04/22 10:27:50;;;;;;;3.43;2.60;;;8.30;91.20;;;;;;5339137;26;20489;-68
2024/04/22 10:30:20;;;;;;;2.90;2.47;;;8.40;87.50;;;;;;5343519;26;20537;-68
2024/04/22 10:32:47;;;;;;;2.50;2.30;;;8.50;91.00;;;;;;5340013;26;20489;-68
2024/04/22 10:35:18;;;;;;;2.60;2.40;;;8.60;94.20;;;;;;5342496;26;20484;-68
2024/04/22 10:37:45;;;;;;;2.37;2.17;;;8.60;90.70;;;;;;5337327;26;20484;-67
2024/04/22 10:40:15;;;;;;;3.03;2.67;;;8.70;89.20;;;;;;5337780;26;20617;-68
2024/04/22 10:42:42;;;;;;;3.10;2.80;;;8.70;85.50;;;;;;5335247;26;20489;-67
2024/04/22 10:45:16;;;;;;;2.47;2.27;;;8.70;93.20;;;;;;5338921;26;20563;-68
2024/04/22 10:47:43;;;;;;;3.67;2.87;;;8.70;90.40;;;;;;5337632;26;20533;-68
2024/04/22 10:50:22;;;;;;;3.17;2.77;;;8.70;90.80;;;;;;5355782;26;21028;-68
2024/04/22 10:52:49;;;;;;;4.90;3.00;;;8.80;91.80;;;;;;5339865;26;20485;-68
2024/04/22 10:55:19;;;;;;;2.53;2.33;;;9.00;95.30;;;;;;5348422;26;20953;-68
2024/04/22 10:57:46;;;;;;;2.90;2.63;;;9.10;95.00;;;;;;5344460;26;20906;-68
2024/04/22 11:00:19;;;;;;;2.97;2.40;;;9.20;94.80;;;;;;5340202;26;20483;-68
2024/04/22 11:02:47;;;;;;;3.13;2.80;;;9.40;94.90;;;;;;5351641;26;20589;-68
2024/04/22 11:05:17;;;;;;;4.00;2.67;;;9.50;83.40;;;;;;5334853;26;20487;-68
2024/04/22 11:07:45;;;;;;;3.50;2.60;;;9.60;78.90;;;;;;5335911;26;20492;-67
2024/04/22 11:10:15;;;;;;;3.53;3.23;;;9.60;82.40;;;;;;5343319;26;20556;-68
2024/04/22 11:12:54;;;;;;;4.30;2.77;;;9.60;95.60;;;;;;5345086;26;20481;-68
2024/04/22 11:15:27;;;;;;;4.20;3.20;;;9.50;95.70;;;;;;5339433;26;20478;-68
2024/04/22 11:18:04;;;;;;;3.60;3.40;;;9.40;97.90;;;;;;5334730;26;20549;-68
2024/04/22 11:20:34;;;;;;;3.27;2.97;;;9.30;99.90;;;;;;5348218;26;20491;-68
2024/04/22 11:23:01;;;;;;;5.07;3.20;;;9.10;99.90;;;;;;5345971;26;20618;-67
2024/04/22 11:25:31;;;;;;;3.63;3.33;;;9.10;99.90;;;;;;5334202;26;20480;-68
2024/04/22 11:27:59;;;;;;;4.00;3.60;;;9.10;99.90;;;;;;5334615;26;20541;-68
2024/04/22 11:30:31;;;;;;;4.40;3.00;;;9.00;99.90;;;;;;5334439;26;20501;-68
2024/04/22 11:33:03;;;;;;;4.77;3.37;;;8.90;99.90;;;;;;5339511;26;20855;-68
2024/04/22 11:35:37;;;;;;;3.60;3.30;;;8.80;99.90;;;;;;5336869;26;20568;-68
2024/04/22 11:38:04;;;;;;;4.70;3.50;;;8.80;99.90;;;;;;5337911;26;20469;-68
2024/04/22 11:40:34;;;;;;;3.83;3.53;;;8.80;99.90;;;;;;5342734;26;20568;-68
2024/04/22 11:43:02;;;;;;;4.10;3.70;;;8.70;99.90;;;;;;5339578;26;21002;-68
2024/04/22 11:45:34;;;;;;;3.70;3.30;;;8.60;99.90;;;;;;5338980;26;20525;-68
2024/04/22 11:48:01;;;;;;;3.83;3.50;;;8.60;99.90;;;;;;5331528;26;20491;-68
2024/04/22 11:50:31;;;;;;;3.60;2.90;;;8.60;99.90;;;;;;5342395;26;20481;-68
2024/04/22 11:52:58;;;;;;;3.73;3.27;;;8.60;99.90;;;;;;5338161;26;20667;-68
2024/04/22 11:55:40;;;;;;;3.10;2.80;;;8.60;99.90;;;;;;5338979;26;20486;-68
2024/04/22 11:58:07;;;;;;;3.00;2.80;;;8.50;99.90;;;;;;5331462;26;20547;-68
2024/04/22 12:00:40;;;;;;;4.67;2.80;;;8.50;99.90;;;;;;5350620;26;21053;-68
2024/04/22 12:03:07;;;;;;;3.40;3.10;;;8.60;99.90;;;;;;5341672;26;20497;-68
2024/04/22 12:05:37;;;;;;;2.37;2.17;;;8.70;99.90;;;;;;5338373;26;21102;-68
2024/04/22 12:08:05;;;;;;;4.07;2.80;;;8.80;99.90;;;;;;5335184;26;20624;-68
2024/04/22 12:10:35;;;;;;;3.53;3.23;;;8.90;99.90;;;;;;5339332;26;22356;-68
2024/04/22 12:13:03;;;;;;;3.97;3.43;;;9.00;99.90;;;;;;5346286;26;20632;-68
2024/04/22 12:15:33;;;;;;;3.37;3.07;;;9.10;99.90;;;;;;5349852;26;20492;-69
2024/04/22 12:18:03;;;;;;;3.20;2.93;;;9.10;99.90;;;;;;5347130;26;20543;-68
2024/04/22 12:20:33;;;;;;;3.40;3.10;;;9.10;99.90;;;;;;5337766;26;20549;-68
2024/04/22 12:23:00;;;;;;;3.40;2.63;;;9.20;99.90;;;;;;5340456;26;20481;-68
2024/04/22 12:25:30;;;;;;;3.30;3.00;;;9.30;99.90;;;;;;5339010;26;21577;-68
2024/04/22 12:27:57;;;;;;;2.83;2.63;;;9.40;99.90;;;;;;5338045;26;20477;-68
2024/04/22 12:30:42;;;;;;;3.63;3.23;;;9.60;99.90;;;;;;5331873;26;22908;-68
2024/04/22 12:33:12;;;;;;;3.20;2.93;;;9.70;99.90;;;;;;5346719;26;20545;-68
2024/04/22 12:35:42;;;;;;;3.43;3.13;;;9.80;99.90;;;;;;5347729;26;20501;-68
2024/04/22 12:38:12;;;;;;;3.27;2.97;;;9.80;95.70;;;;;;5341172;26;20560;-68
2024/04/22 12:40:42;;;;;;;3.30;3.07;;;9.90;99.90;;;;;;5342521;26;20543;-67
2024/04/22 12:43:10;;;;;;;3.60;3.23;;;10.00;97.70;;;;;;5344192;26;20560;-68
2024/04/22 12:45:42;;;;;;;3.53;3.33;;;10.00;99.90;;;;;;5338787;26;20845;-68
2024/04/22 12:51:00;;;;;;;3.60;3.30;;;10.20;99.90;;;;;;5339988;26;20534;-68
2024/04/22 12:53:31;;;;;;;3.40;3.20;;;10.10;99.90;;;;;;5339373;26;20484;-68
2024/04/22 12:56:01;;;;;;;3.87;3.57;;;10.00;99.90;;;;;;5339571;26;20594;-68
2024/04/22 12:58:36;;;;;;;3.77;3.47;;;10.00;99.90;;;;;;5334899;26;20564;-68
2024/04/22 13:01:07;;;;;;;3.47;3.17;;;10.00;99.90;;;;;;5337728;26;20536;-68
2024/04/22 13:03:37;;;;;;;4.57;4.13;;;10.00;99.90;;;;;;5347530;26;20592;-68
2024/04/22 13:06:07;;;;;;;3.83;3.53;;;10.10;99.90;;;;;;5339635;26;21032;-68
2024/04/22 13:08:37;;;;;;;4.50;3.53;;;10.00;99.90;;;;;;5334801;26;20481;-68
2024/04/22 13:11:07;;;;;;;3.50;3.20;;;10.00;99.90;;;;;;5337111;26;20547;-69
2024/04/22 13:13:37;;;;;;;3.70;3.40;;;10.00;99.90;;;;;;5330155;26;21374;-68
2024/04/22 13:16:07;;;;;;;3.20;2.90;;;10.00;99.90;;;;;;5339671;26;20979;-69